createdAt,value
2022-08-07T00:02:41.265Z,56.38
2022-08-07T00:07:19.449Z,60.26
2022-08-07T00:12:21.916Z,66.88
2022-08-07T00:17:24.389Z,62.11
2022-08-07T00:22:34.889Z,57.47
2022-08-07T00:27:52.358Z,60.25
2022-08-07T00:33:00.271Z,66.57
2022-08-07T00:38:02.730Z,61.11
2022-08-07T00:43:09.783Z,57.01
2022-08-07T00:48:13.292Z,61.30
2022-08-07T00:53:16.517Z,65.55
2022-08-07T00:58:21.194Z,58.83
2022-08-07T01:03:54.817Z,58.03
2022-08-07T01:08:53.471Z,61.25
2022-08-07T01:13:58.486Z,68.09
2022-08-07T01:19:00.895Z,62.18
2022-08-07T01:24:07.713Z,57.18
2022-08-07T01:29:13.553Z,60.09
2022-08-07T01:34:18.882Z,66.73
2022-08-07T01:39:22.064Z,61.51
2022-08-07T01:44:24.829Z,57.26
2022-08-07T01:49:27.477Z,60.57
2022-08-07T01:54:39.465Z,66.47
2022-08-07T01:59:50.369Z,62.13
2022-08-07T02:04:59.144Z,57.22
2022-08-07T02:10:02.861Z,59.97
2022-08-07T02:15:07.134Z,66.69
2022-08-07T02:20:17.271Z,61.56
2022-08-07T02:26:10.658Z,56.76
2022-08-07T02:30:48.383Z,59.71
2022-08-07T02:36:29.322Z,66.60
2022-08-07T02:41:21.774Z,61.55
2022-08-07T02:46:26.231Z,56.59
2022-08-07T02:51:42.482Z,60.02
2022-08-07T02:56:54.859Z,66.62
2022-08-07T03:02:02.271Z,61.21
2022-08-07T03:07:07.391Z,56.55
2022-08-07T03:12:22.473Z,59.99
2022-08-07T03:17:52.983Z,66.19
2022-08-07T03:22:58.612Z,60.54
2022-08-07T03:28:09.690Z,56.42
2022-08-07T03:33:25.466Z,60.69
2022-08-07T03:38:43.732Z,66.48
2022-08-07T03:43:57.469Z,60.19
2022-08-07T03:49:02.535Z,56.88
2022-08-07T03:54:36.154Z,60.29
2022-08-07T03:59:28.696Z,66.72
2022-08-07T04:04:32.756Z,59.93
2022-08-07T04:09:45.419Z,57.21
2022-08-07T04:14:53.453Z,60.71
2022-08-07T04:19:58.841Z,66.39
2022-08-07T04:25:02.078Z,60.50
2022-08-07T04:30:11.820Z,56.23
2022-08-07T04:35:23.776Z,59.92
2022-08-07T04:40:26.624Z,65.24
2022-08-07T04:46:01.412Z,59.38
2022-08-07T04:51:18.318Z,61.58
2022-08-07T04:58:12.232Z,61.60
2022-08-07T05:02:26.840Z,56.99
2022-08-07T05:08:06.095Z,61.37
2022-08-07T05:14:53.108Z,58.64
2022-08-07T05:18:47.217Z,59.77
2022-08-07T05:23:57.320Z,63.54
2022-08-07T05:29:04.407Z,57.86
2022-08-07T05:34:12.180Z,58.36
2022-08-07T05:40:18.016Z,62.56
2022-08-07T05:44:46.635Z,58.38
2022-08-07T05:50:03.625Z,58.50
2022-08-07T05:55:10.809Z,62.67
2022-08-07T06:00:16.107Z,62.86
2022-08-07T06:05:28.197Z,55.95
2022-08-07T06:10:31.846Z,58.39
2022-08-07T06:15:42.567Z,61.20
2022-08-07T06:20:50.436Z,63.43
2022-08-07T06:26:13.042Z,56.68
2022-08-07T06:31:15.460Z,59.96
2022-08-07T06:36:34.795Z,62.61
2022-08-07T06:41:59.241Z,58.86
2022-08-07T06:47:10.369Z,57.20
2022-08-07T06:52:31.442Z,59.74
2022-08-07T06:57:43.549Z,60.91
2022-08-07T07:02:57.973Z,61.50
2022-08-07T07:08:07.099Z,61.26
2022-08-07T07:13:56.498Z,61.03
2022-08-07T07:18:48.010Z,60.90
2022-08-07T07:24:09.518Z,60.81
2022-08-07T07:29:39.147Z,59.95
2022-08-07T07:34:48.863Z,58.78
2022-08-07T07:39:56.302Z,58.84
2022-08-07T07:45:01.480Z,58.03
2022-08-07T07:50:32.961Z,56.58
2022-08-07T07:55:37.705Z,54.28
2022-08-07T08:00:53.799Z,53.33
2022-08-07T08:05:56.650Z,53.77
2022-08-07T08:11:00.362Z,51.73
2022-08-07T08:16:05.345Z,51.22
2022-08-07T08:21:55.914Z,51.55
2022-08-07T08:27:11.140Z,50.78
2022-08-07T08:32:25.120Z,49.98
2022-08-07T08:38:00.902Z,49.32
2022-08-07T08:42:56.067Z,47.20
2022-08-07T08:48:14.515Z,47.40
2022-08-07T08:53:42.912Z,47.92
2022-08-07T08:59:13.956Z,48.68
2022-08-07T09:04:36.624Z,46.51
2022-08-07T09:09:56.521Z,46.72
2022-08-07T09:16:22.034Z,46.04
2022-08-07T09:20:43.637Z,46.50
2022-08-07T09:26:17.178Z,46.10
2022-08-07T09:31:48.741Z,43.57
2022-08-07T09:37:04.514Z,41.74
2022-08-07T09:42:38.979Z,42.31
2022-08-07T09:48:04.019Z,40.68
2022-08-07T09:53:12.858Z,40.23
2022-08-07T09:58:32.871Z,40.28
2022-08-07T10:04:05.848Z,38.80
2022-08-07T10:10:00.074Z,39.01
2022-08-07T10:15:08.307Z,36.33
2022-08-07T10:20:50.476Z,38.31
2022-08-07T10:26:24.654Z,38.24
2022-08-07T10:31:45.130Z,37.68
2022-08-07T10:37:19.807Z,37.27
2022-08-07T10:42:52.177Z,37.57
2022-08-07T10:48:13.394Z,37.65
2022-08-07T10:53:50.553Z,36.81
2022-08-07T10:59:06.761Z,37.25
2022-08-07T11:04:31.899Z,37.88
2022-08-07T11:10:07.481Z,35.99
2022-08-07T11:15:17.426Z,35.57
2022-08-07T11:20:38.850Z,36.36
2022-08-07T11:25:52.843Z,36.40
2022-08-07T11:31:19.802Z,36.22
2022-08-07T11:37:06.778Z,34.95
2022-08-07T11:42:19.488Z,35.05
2022-08-07T11:47:55.952Z,34.56
2022-08-07T11:53:27.844Z,33.70
2022-08-07T12:00:07.689Z,34.39
2022-08-07T12:05:15.127Z,35.84
2022-08-07T12:10:42.182Z,37.93
2022-08-07T12:16:05.877Z,38.65
2022-08-07T12:22:35.838Z,39.29
2022-08-07T12:27:14.923Z,39.10
2022-08-07T12:32:29.754Z,38.92
2022-08-07T12:38:11.517Z,38.37
2022-08-07T12:43:00.415Z,39.97
2022-08-07T12:48:27.717Z,41.19
2022-08-07T12:54:36.511Z,41.93
2022-08-07T12:59:22.468Z,42.24
2022-08-07T13:05:01.053Z,42.08
2022-08-07T13:10:39.757Z,42.03
2022-08-07T13:16:10.553Z,41.77
2022-08-07T13:21:54.909Z,41.55
2022-08-07T13:27:10.246Z,41.22
2022-08-07T13:32:32.866Z,40.02
2022-08-07T13:38:00.948Z,39.70
2022-08-07T13:43:12.322Z,37.74
2022-08-07T13:48:27.602Z,35.68
2022-08-07T13:53:59.667Z,35.16
2022-08-07T13:59:05.463Z,36.74
2022-08-07T14:04:11.397Z,37.24
2022-08-07T14:10:00.693Z,37.59
2022-08-07T14:14:52.677Z,38.10
2022-08-07T14:20:39.905Z,37.43
2022-08-07T14:25:39.591Z,38.46
2022-08-07T14:30:52.256Z,35.32
2022-08-07T14:35:58.612Z,34.15
2022-08-07T14:41:12.384Z,34.99
2022-08-07T14:46:24.811Z,36.31
2022-08-07T14:52:03.861Z,37.78
2022-08-07T14:57:02.186Z,38.74
2022-08-07T15:02:32.945Z,39.24
2022-08-07T15:07:47.228Z,39.05
2022-08-07T15:12:54.927Z,39.08
2022-08-07T15:18:14.296Z,38.53
2022-08-07T15:34:22.357Z,38.33
2022-08-07T15:39:56.828Z,39.13
2022-08-07T15:44:52.645Z,40.15
2022-08-07T15:50:03.700Z,38.81
2022-08-07T15:55:11.454Z,34.57
2022-08-07T16:00:31.273Z,33.51
2022-08-07T16:05:38.248Z,34.64
2022-08-07T16:10:47.309Z,35.72
2022-08-07T16:16:48.784Z,35.58
2022-08-07T16:22:31.582Z,36.78
2022-08-07T16:27:57.372Z,35.49
2022-08-07T16:34:01.956Z,35.77
2022-08-07T16:39:03.608Z,36.98
2022-08-07T16:45:03.829Z,38.33
2022-08-07T16:50:36.162Z,39.98
2022-08-07T16:56:11.930Z,41.37
2022-08-07T17:01:34.490Z,42.14
2022-08-07T17:07:02.835Z,42.94
2022-08-07T17:12:33.927Z,43.33
2022-08-07T17:17:46.459Z,43.56
2022-08-07T17:23:11.465Z,43.27
2022-08-07T17:28:20.115Z,44.54
2022-08-07T17:34:08.646Z,45.13
2022-08-07T17:39:01.488Z,44.67
2022-08-07T17:44:15.643Z,46.22
2022-08-07T17:49:45.091Z,46.17
2022-08-07T17:54:53.644Z,50.07
2022-08-07T18:00:06.272Z,50.33
2022-08-07T18:06:01.773Z,49.91
2022-08-07T18:12:07.606Z,51.93
2022-08-07T18:16:31.199Z,50.89
2022-08-07T18:22:00.478Z,54.80
2022-08-07T18:27:21.098Z,53.71
2022-08-07T18:32:46.338Z,54.12
2022-08-07T18:38:55.691Z,54.06
2022-08-07T18:44:03.062Z,57.08
2022-08-07T18:50:30.075Z,58.37
2022-08-07T18:55:43.267Z,59.33
2022-08-07T19:02:33.084Z,58.76
2022-08-07T19:06:57.640Z,59.57
2022-08-07T19:12:04.981Z,61.06
2022-08-07T19:17:55.595Z,63.98
2022-08-07T19:23:17.921Z,58.22
2022-08-07T19:28:30.701Z,54.71
2022-08-07T19:33:58.044Z,57.66
2022-08-07T19:39:01.747Z,59.09
2022-08-07T19:44:21.255Z,59.40
2022-08-07T19:49:58.602Z,60.84
2022-08-07T19:54:55.945Z,60.44
2022-08-07T20:00:09.038Z,65.90
2022-08-07T20:05:16.583Z,59.42
2022-08-07T20:10:36.213Z,55.30
2022-08-07T20:15:55.149Z,57.38
2022-08-07T20:21:20.809Z,60.72
2022-08-07T20:26:32.065Z,65.52
2022-08-07T20:31:44.900Z,57.66
2022-08-07T20:36:51.812Z,56.82
2022-08-07T20:41:54.811Z,59.49
2022-08-07T20:47:05.626Z,59.34
2022-08-07T20:52:30.041Z,65.65
2022-08-07T20:58:04.177Z,58.08
2022-08-07T21:03:23.238Z,56.93
2022-08-07T21:08:38.268Z,60.31
2022-08-07T21:14:20.114Z,60.40
2022-08-07T21:19:15.515Z,63.36
2022-08-07T21:24:32.338Z,62.85
2022-08-07T21:29:53.416Z,55.06
2022-08-07T21:34:58.358Z,56.40
2022-08-07T21:40:13.691Z,59.70
2022-08-07T21:46:08.365Z,59.63
2022-08-07T21:50:53.787Z,64.94
2022-08-07T21:56:35.755Z,61.72
2022-08-07T22:02:10.905Z,54.65
2022-08-07T22:07:05.599Z,57.24
2022-08-07T22:12:31.515Z,60.11
2022-08-07T22:17:40.511Z,61.99
2022-08-07T22:23:01.472Z,66.39
2022-08-07T22:28:32.214Z,57.99
2022-08-07T22:33:57.226Z,54.84
2022-08-07T22:39:12.889Z,56.63
2022-08-07T22:44:22.296Z,57.57
2022-08-07T22:49:42.817Z,60.69
2022-08-07T22:55:00.310Z,65.74
2022-08-07T23:00:28.784Z,57.67
2022-08-07T23:06:10.127Z,56.00
2022-08-07T23:11:48.349Z,58.49
2022-08-07T23:17:12.762Z,59.53
2022-08-07T23:22:40.074Z,60.37
2022-08-07T23:28:21.549Z,67.18
2022-08-07T23:34:35.633Z,60.53
2022-08-07T23:39:22.061Z,55.27
2022-08-07T23:44:40.994Z,57.60
2022-08-07T23:50:07.654Z,59.23
2022-08-07T23:55:52.193Z,60.22
